Tiempo atmosférico en la estación meteorológica de Olivenza, Badajoz (93 m.)



Fecha
DESCASC
Temp. máxima en grados centígrados (hora)
DESCASC
Temp. mínima en grados centígrados (hora)
DESCASC
Temp. media en grados centígrados
DESCASC
Racha de viento máxima en m/sg (hora)
DESCASC
Velocidad máxima media en intervalos de 10 minutos(hora)
DESCASC
Precipitaciones diarias en mm
DESCASC
Precipitaciones de 00:00 a 06:00 en mm
DESCASC
Precipitaciones de 06:00 a 12:00 en mm
DESCASC
Precipitaciones de 12:00 a 18:00 en mm
DESCASC
Precipitaciones de 18:00 a 24:00 en mm
DESCASC
05-04-2020 19 (13:10) 10.5 (05:30) 14.8 15.28 (18:40) 10.28 (16:00) 9.6 0 0 0 9.6
04-04-2020 18.4 (14:00) 9.8 (07:00) 14.1 9.17 (16:10) 6.11 (16:10) 0.2 0 0 0 0.2
03-04-2020 20.9 (17:10) 6.9 (08:10) 13.9 5.28 (23:59) 3.61 (23:59) 0 0 0 0 0
02-04-2020 18.1 (18:40) 5.9 (00:00) 12 6.94 (10:50) 5.56 (11:00) 0.4 0.4 0 0 0
01-04-2020 13.7 (16:40) 3.6 (00:00) 8.6 16.94 (15:10) 8.89 (15:10) 8.4 0 0 3.2 5.2
31-03-2020 13.5 (16:40) 5.6 (00:00) 9.5 10.83 (19:20) 7.78 (05:20) 12 9.8 2 0.2 0
30-03-2020 13.5 (14:10) 7.7 (00:00) 10.6 7.22 (17:30) 5.83 (17:30) 0.8 0 0.2 0 0.6
29-03-2020 19.3 (16:30) 8.2 (00:00) 13.7 6.67 (15:40) 3.61 (11:40) 0 0 0 0 0
28-03-2020 16.9 (15:50) 3.2 (00:00) 10 9.44 (09:40) 7.5 (09:40) 0 0 0 0 0
27-03-2020 15.1 (17:10) 7 (00:00) 11.1 8.06 (15:30) 5.56 (15:20) 0 0 0 0 0
26-03-2020 20 (15:40) 8.1 (00:00) 14.1 10.28 (16:30) 6.39 (16:20) 0 0 0 0 0
25-03-2020 20.7 (17:40) 8.7 (00:00) 14.7 7.78 (03:00) 6.11 (03:20) 0 0 0 0 0
24-03-2020 18.3 (13:30) 7 (00:00) 12.6 15.83 (13:00) 11.39 (12:40) 0 0 0 0 0
23-03-2020 17.4 (15:20) 7.5 (00:00) 12.4 11.39 (15:40) 8.33 (15:50) 0 0 0 0 0
22-03-2020 16.2 (15:50) 6.2 (07:40) 11.2 8.89 (13:20) 5 (11:00) 0 0 0 0 0
21-03-2020 13 (14:50) 7.8 (00:00) 10.4 9.17 (15:50) 5.56 (17:10) 10.4 4.4 0.2 5.4 0.4
20-03-2020 14.8 (14:50) 10.2 (00:00) 12.5 10 (06:00) 6.94 (06:20) 29.2 0 0 8.6 20.6
19-03-2020 21.6 (16:10) 7.9 (00:00) 14.8 8.06 (14:10) 5.83 (00:30) 0 0 0 0 0
18-03-2020 21.8 (16:50) 8 (00:00) 14.9 11.94 (10:10) 9.72 (10:30) 0 0 0 0 0
17-03-2020 18 (17:30) 4.2 (00:00) 11.1 13.33 (13:10) 9.72 (10:50) 0 0 0 0 0
16-03-2020 14 (13:10) 3.9 (00:00) 9 17.78 (15:10) 9.17 (15:10) 1.8 0 0 0.2 1.6
15-03-2020 21.2 (15:20) 7 (00:00) 14.1 12.78 (21:00) 7.78 (20:30) 0 0 0 0 0
14-03-2020 23.6 (17:10) 8.9 (00:00) 16.3 4.17 (14:20) 2.5 (14:20) 0 0 0 0 0
13-03-2020 17.1 (18:00) 9.8 (03:20) 13.5 6.11 (01:40) 4.17 (02:00) 0 0 0 0 0
12-03-2020 22.7 (16:10) 10.7 (00:00) 16.7 9.17 (15:30) 6.11 (15:30) 0 0 0 0 0
11-03-2020 25.8 (14:40) 8.7 (00:00) 17.2 6.11 (13:10) 4.72 (13:00) 0 0 0 0 0
10-03-2020 24.9 (16:30) 7.7 (00:00) 16.3 5.83 (07:20) 4.72 (07:40) 0 0 0 0 0
09-03-2020 21.2 (16:50) 8.2 (00:00) 14.7 8.61 (14:50) 6.67 (14:50) 0 0 0 0 0

Gráficas

Temp. máximas Temp. mínimas Temp. medias Precipitaciones Rachas de viento máximas Velocidades máximas media en intervalos de 10 minutos

Datos horarios

Fecha y hora oficial Temperatura (ºC) Velocidad del viento (km/h) Dirección del viento Racha (km/h) Dirección de racha Precipitación (mm) Presión (hPa) Tendencia (hPa) Humedad (%)
2020-04-07 23:00:00 15.1 5 Sur 15 Sur 0 -- -- 86
2020-04-07 22:00:00 15.5 10 Sur 13 Sur 0 -- -- 86
2020-04-07 21:00:00 17.3 6 Sur 11 Sur 0 -- -- 79
2020-04-07 20:00:00 18.9 7 Sur 15 Sur 0 -- -- 73
2020-04-07 19:00:00 20.7 11 Sur 22 Sudoeste 0 -- -- 65
2020-04-07 18:00:00 20.6 10 Sur 19 Sudoeste 0 -- -- 65
2020-04-07 17:00:00 20.3 12 Sudoeste 23 Sudoeste 0 -- -- 66
2020-04-07 16:00:00 19.6 16 Sudoeste 25 Sudoeste 0 -- -- 72
2020-04-07 15:00:00 17.7 14 Sudoeste 27 Sudoeste 0.2 -- -- 80
2020-04-07 14:00:00 17.2 17 Sudoeste 26 Sudoeste 0 -- -- 86
2020-04-07 13:00:00 16.5 17 Sudoeste 30 Sur 0 -- -- 88
2020-04-07 12:00:00 15.7 17 Sudoeste 32 Sudoeste 0 -- -- 91
2020-04-07 11:00:00 14.7 13 Sur 22 Sur 0.2 -- -- 95
2020-04-07 10:00:00 14.2 9 Sudeste 16 Sudeste 0 -- -- 98
2020-04-07 09:00:00 13.5 8 Sudoeste 23 Sudoeste 0 -- -- 99
2020-04-07 08:00:00 13.2 16 Sudoeste 24 Sudoeste 0 -- -- 98
2020-04-07 07:00:00 13.5 15 Sudoeste 28 Sudoeste 0 -- -- 96
2020-04-07 06:00:00 13.9 20 Sur 30 Sur 0.2 -- -- 95
2020-04-07 05:00:00 13.8 7 Sur 22 Sur 2.6 -- -- 96
2020-04-07 04:00:00 14.2 15 Sur 25 Sur 0.6 -- -- 93
2020-04-07 03:00:00 14.9 14 Sur 30 Sur 0.2 -- -- 88
2020-04-07 02:00:00 14.4 15 Sur 23 Sudoeste 0 -- -- 91
2020-04-07 01:00:00 14.8 12 Sur 20 Sur 0 -- -- 90
2020-04-07 00:00:00 15.3 10 Sur 14 Sur 0.6 -- -- 91
2020-04-06 23:00:00 15.8 4 Sur 12 Sur 0 -- -- 90
2020-04-06 22:00:00 15.5 5 Nordeste 8 Sur 0 -- -- 94
2020-04-06 21:00:00 16.2 8 Sur 24 Sur 0.4 -- -- 89
2020-04-06 20:00:00 17.1 13 Sur 30 Sur 0 -- -- 83
2020-04-06 19:00:00 17.9 18 Sur 27 Sur 0 -- -- 77
2020-04-06 18:00:00 18.3 15 Sur 24 Sudoeste 0 -- -- 76
2020-04-06 17:00:00 19 17 Sur 30 Sur 0 -- -- 73
2020-04-06 16:00:00 19.6 19 Sudoeste 36 Sudoeste 0 -- -- 69
2020-04-06 15:00:00 19.6 19 Sudoeste 28 Sur 0 -- -- 67
2020-04-06 14:00:00 18.5 15 Sur 26 Sur 0 -- -- 73
2020-04-06 13:00:00 17.5 14 Sudoeste 30 Sur 0 -- -- 79
2020-04-06 12:00:00 16.7 17 Sur 27 Sur 0 -- -- 83
2020-04-06 11:00:00 15.1 11 Sur 18 Sur 0 -- -- 98
2020-04-06 10:00:00 13.7 3 Sudeste 6 Este 0 -- -- 100
2020-04-06 09:00:00 12.5 4 Este 8 Sudoeste 0 -- -- 100
2020-04-06 08:00:00 12.4 0 Calma 6 Oeste 0 -- -- 100
2020-04-06 07:00:00 12.4 5 Oeste 10 Sudoeste 0 -- -- 100
2020-04-06 06:00:00 12.5 5 Sudoeste 15 Oeste 0 -- -- 100
2020-04-06 05:00:00 12.5 9 Oeste 18 Sudoeste 0 -- -- 100
2020-04-06 04:00:00 12.6 13 Sudoeste 20 Sudoeste 0 -- -- 99
2020-04-06 03:00:00 13 12 Sudoeste 21 Oeste 0 -- -- 99
2020-04-06 02:00:00 13.5 11 Sudoeste 27 Sudoeste 0 -- -- 99
2020-04-06 01:00:00 14.2 16 Sudoeste 26 Sudoeste 0.2 -- -- 99
2020-04-06 00:00:00 14.8 18 Sudoeste 28 Sudoeste 5.2 -- -- 98
2020-04-05 23:00:00 14.9 16 Sudoeste 41 Sudoeste 3.2 -- -- 97
2020-04-05 22:00:00 15 24 Sur 42 Sur 0.6 -- -- 96
2020-04-05 21:00:00 15.4 25 Sur 40 Sur 0.4 -- -- 92
2020-04-05 20:00:00 15.9 25 Sur 45 Sur 0.2 -- -- 89
2020-04-05 19:00:00 16.7 27 Sur 55 Sudoeste 0 -- -- 85
2020-04-05 18:00:00 17.3 24 Sur 45 Sur 0 -- -- 82
2020-04-05 17:00:00 17.8 36 Sur 53 Sur 0 -- -- 76
2020-04-05 16:00:00 18.3 37 Sur 54 Sur 0 -- -- 71
2020-04-05 15:00:00 18.9 32 Sur 53 Sur 0 -- -- 69
2020-04-05 14:00:00 17.8 32 Sur 51 Sur 0 -- -- 70
2020-04-05 13:00:00 18.9 31 Sur 48 Sur 0 -- -- 66
2020-04-05 12:00:00 17.6 26 Sur 43 Sur 0 -- -- 69
2020-04-05 11:00:00 15.8 19 Sur 36 Sudoeste 0 -- -- 75
2020-04-05 10:00:00 14.7 18 Sur 42 Sudeste 0 -- -- 77
2020-04-05 09:00:00 13.4 27 Sur 44 Sur 0 -- -- 82
2020-04-05 08:00:00 12.9 24 Sur 49 Sur 0 -- -- 84
2020-04-05 07:00:00 12.3 26 Sur 37 Sur 0 -- -- 88
2020-04-05 06:00:00 10.6 4 Oeste 11 Oeste 0 -- -- 88
2020-04-05 05:00:00 10.9 8 Sudeste 15 Sur 0 -- -- 84
2020-04-05 04:00:00 11.2 11 Sudoeste 15 Sudoeste 0 -- -- 86
2020-04-05 03:00:00 11 0 Calma 11 Sudeste 0 -- -- 87
2020-04-05 02:00:00 11.9 4 Sudeste 13 Sur 0 -- -- 83
2020-04-05 01:00:00 12.2 5 Sur 18 Sudeste 0 -- -- 82
2020-04-05 00:00:00 12.7 13 Sudeste 19 Sudeste 0 -- -- 81
2020-04-04 23:00:00 13.2 8 Sudeste 13 Sudeste 0 -- -- 81
2020-04-04 22:00:00 13.6 11 Sudeste 13 Sudeste 0 -- -- 83
2020-04-04 21:00:00 14.3 5 Este 9 Este 0 -- -- 83
2020-04-04 20:00:00 15 5 Este 13 Sur 0 -- -- 79
2020-04-04 19:00:00 15.2 8 Sur 15 Sudeste 0.2 -- -- 77
2020-04-04 18:00:00 16.3 12 Sur 20 Sur 0 -- -- 64
2020-04-04 17:00:00 16.7 13 Sur 33 Sudoeste 0 -- -- 60
2020-04-04 16:00:00 17.7 19 Sudoeste 27 Sudoeste 0 -- -- 53
2020-04-04 15:00:00 17.3 15 Sur 30 Sur 0 -- -- 52
2020-04-04 14:00:00 18.4 13 Sur 25 Sur 0 -- -- 50
2020-04-04 13:00:00 16.5 10 Sudeste 23 Sudeste 0 -- -- 53
2020-04-04 12:00:00 15.4 6 Sudeste 21 Sudeste 0 -- -- 60
2020-04-04 11:00:00 14.1 12 Sudeste 23 Sudeste 0 -- -- 65
2020-04-04 10:00:00 13.1 13 Sudeste 21 Este 0 -- -- 65
2020-04-04 09:00:00 11.1 15 Este 21 Este 0 -- -- 71
2020-04-04 08:00:00 10 14 Este 26 Sudeste 0 -- -- 70
2020-04-04 07:00:00 9.8 16 Este 22 Este 0 -- -- 77
2020-04-04 06:00:00 11.7 14 Sudeste 27 Sudeste 0 -- -- 73
2020-04-04 05:00:00 11.7 13 Sudeste 22 Sudeste 0 -- -- 78
2020-04-04 04:00:00 11.5 13 Sudeste 18 Sudeste 0 -- -- 77
2020-04-04 03:00:00 13.3 14 Sur 25 Sur 0 -- -- 69
2020-04-04 02:00:00 12.7 13 Sudeste 21 Sur 0 -- -- 74
2020-04-04 01:00:00 14.3 16 Sur 24 Sudeste 0 -- -- 67
2020-04-04 00:00:00 13.2 13 Sudeste 19 Sudeste 0 -- -- 83
2020-04-03 23:00:00 14.5 9 Nordeste 13 Norte 0 -- -- 75
2020-04-03 22:00:00 15.8 7 Norte 9 Norte 0 -- -- 72
2020-04-03 21:00:00 17 6 Norte 10 Norte 0 -- -- 71
2020-04-03 20:00:00 19.8 6 Norte 9 Norte 0 -- -- 57
2020-04-03 19:00:00 18.6 2 Noroeste 9 Nordeste 0 -- -- 63
2020-04-03 18:00:00 20 5 Norte 14 Nordeste 0 -- -- 56
2020-04-03 17:00:00 20.5 3 Nordeste 11 Norte 0 -- -- 59
2020-04-03 16:00:00 19.5 4 Sudeste 14 Este 0 -- -- 57
2020-04-03 15:00:00 19.1 5 Sudeste 12 Sudeste 0 -- -- 62
2020-04-03 14:00:00 17.3 4 Nordeste 13 Nordeste 0 -- -- 68
2020-04-03 13:00:00 16.2 6 Nordeste 14 Nordeste 0 -- -- 71
2020-04-03 12:00:00 15.1 3 Nordeste 9 Sudeste 0 -- -- 74
2020-04-03 11:00:00 12.9 3 Oeste 8 Sudoeste 0 -- -- 80
2020-04-03 10:00:00 11.5 3 Este 7 Este 0 -- -- 88
2020-04-03 09:00:00 7.6 4 Sur 9 Sudoeste 0 -- -- 96
2020-04-03 08:00:00 7.1 5 Sudoeste 8 Sudoeste 0 -- -- 95
2020-04-03 07:00:00 8 7 Sudoeste 17 Sudoeste 0 -- -- 94
2020-04-03 06:00:00 7.8 6 Oeste 9 Oeste 0 -- -- 95
2020-04-03 05:00:00 8.9 7 Sudoeste 13 Oeste 0 -- -- 92
2020-04-03 04:00:00 9.4 8 Sudoeste 11 Sudoeste 0 -- -- 90
2020-04-03 03:00:00 9.7 5 Sudoeste 15 Oeste 0 -- -- 90
2020-04-03 02:00:00 10 12 Oeste 17 Oeste 0 -- -- 89
2020-04-03 01:00:00 10.4 8 Oeste 12 Oeste 0 -- -- 88
2020-04-03 00:00:00 11.5 7 Oeste 18 Oeste 0 -- -- 82
2020-04-02 23:00:00 12.3 6 Sudoeste 12 Oeste 0 -- -- 76
2020-04-02 22:00:00 13.1 5 Sudoeste 10 Sudoeste 0 -- -- 72
2020-04-02 21:00:00 14.7 6 Sudoeste 10 Sudoeste 0 -- -- 66
2020-04-02 20:00:00 16.9 5 Oeste 15 Oeste 0 -- -- 57
2020-04-02 19:00:00 18 9 Noroeste 17 Oeste 0 -- -- 53
2020-04-02 18:00:00 17.5 8 Oeste 19 Nordeste 0 -- -- 54
2020-04-02 17:00:00 17.1 9 Nordeste 22 Nordeste 0 -- -- 57
2020-04-02 16:00:00 16 8 Este 18 Norte 0 -- -- 63
2020-04-02 15:00:00 14.8 11 Nordeste 22 Nordeste 0 -- -- 70
2020-04-02 14:00:00 13.7 12 Norte 19 Este 0 -- -- 72
2020-04-02 13:00:00 12.9 10 Nordeste 19 Nordeste 0 -- -- 76
2020-04-02 12:00:00 11.6 14 Nordeste 22 Nordeste 0 -- -- 81
2020-04-02 11:00:00 9.8 20 Nordeste 25 Nordeste 0 -- -- 95
2020-04-02 10:00:00 7.1 14 Norte 19 Norte 0 -- -- 100
2020-04-02 09:00:00 6.3 7 Nordeste 12 Nordeste 0 -- -- 100
2020-04-02 08:00:00 6.1 10 Nordeste 22 Norte 0 -- -- 99
2020-04-02 07:00:00 6.4 17 Norte 22 Norte 0 -- -- 99
2020-04-02 06:00:00 6.9 9 Norte 12 Norte 0.2 -- -- 100
2020-04-02 05:00:00 7.3 7 Norte 10 Norte 0 -- -- 99
2020-04-02 04:00:00 7.2 4 Nordeste 10 Nordeste 0 -- -- 99
2020-04-02 03:00:00 7.7 6 Nordeste 12 Norte 0 -- -- 99
2020-04-02 02:00:00 8 3 Norte 9 Norte 0.2 -- -- 98
2020-04-02 01:00:00 8.5 2 Noroeste 5 Nordeste 0 -- -- 98
2020-04-02 00:00:00 8.4 5 Este 10 Sudeste 0 -- -- 97
2020-04-01 23:00:00 8.2 7 Sudeste 13 Sudeste 0 -- -- 97
2020-04-01 22:00:00 8.8 8 Este 18 Sudoeste 1.6 -- -- 96
2020-04-01 21:00:00 8.8 17 Sudoeste 29 Oeste 3.4 -- -- 94
2020-04-01 20:00:00 11 18 Sur 32 Sudeste 0.2 -- -- 84
2020-04-01 19:00:00 11.9 20 Sur 33 Sudeste 0 -- -- 79
2020-04-01 18:00:00 11.8 19 Sur 36 Sur 1.4 -- -- 76
2020-04-01 17:00:00 12.9 25 Sur 36 Sur 0.2 -- -- 67
2020-04-01 16:00:00 12.2 19 Sur 61 Sudoeste 1.6 -- -- 76
2020-04-01 15:00:00 12.8 16 Sudoeste 36 Sur 0 -- -- 61
2020-04-01 14:00:00 12.5 21 Sur 32 Sur 0 -- -- 68
2020-04-01 13:00:00 10 18 Sur 31 Sur 0 -- -- 79
2020-04-01 12:00:00 10.9 13 Sudoeste 27 Sur 0 -- -- 75
2020-04-01 11:00:00 9 2 Norte 9 Oeste 0 -- -- 82
2020-04-01 10:00:00 6.5 7 Sur 17 Sudeste 0 -- -- 89
2020-04-01 09:00:00 5.3 10 Sudeste 16 Sudeste 0 -- -- 96
2020-04-01 08:00:00 3.8 10 Sudeste 14 Sudeste 0 -- -- 97
2020-04-01 07:00:00 3.7 8 Sudeste 14 Sudeste 0 -- -- 96
2020-04-01 06:00:00 4.2 10 Sudeste 14 Sudeste 0 -- -- 93
2020-04-01 05:00:00 4.5 6 Sur 12 Sur 0 -- -- 93
2020-04-01 04:00:00 4.8 5 Sur 9 Sudoeste 0 -- -- 94
2020-04-01 03:00:00 5 4 Sur 13 Sur 0 -- -- 93
2020-04-01 02:00:00 5.3 9 Sur 12 Sur 0 -- -- 91
2020-04-01 01:00:00 6.3 8 Sudoeste 15 Sudoeste 0 -- -- 89
2020-04-01 00:00:00 6.5 9 Sur 18 Sudoeste 0 -- -- 87
2020-03-31 23:00:00 6.7 7 Sur 9 Sur 0 -- -- 90
2020-03-31 22:00:00 7.1 5 Sur 9 Oeste 0 -- -- 89
2020-03-31 21:00:00 8.5 7 Oeste 28 Oeste 0 -- -- 85
2020-03-31 20:00:00 9.9 18 Oeste 39 Oeste 0 -- -- 82
2020-03-31 19:00:00 11 27 Oeste 37 Oeste 0 -- -- 81
2020-03-31 18:00:00 12.6 23 Sudoeste 36 Sudoeste 0 -- -- 78
2020-03-31 17:00:00 13.1 23 Oeste 34 Oeste 0 -- -- 75
2020-03-31 16:00:00 12.4 16 Oeste 24 Sudoeste 0 -- -- 84
2020-03-31 15:00:00 12.3 12 Oeste 17 Oeste 0 -- -- 87
2020-03-31 14:00:00 11.1 7 Oeste 14 Oeste 0 -- -- 100
2020-03-31 13:00:00 9.2 8 Nordeste 13 Nordeste 0.2 -- -- 100
2020-03-31 12:00:00 7.5 9 Nordeste 14 Nordeste 0.2 -- -- 100
2020-03-31 11:00:00 6.5 12 Nordeste 17 Nordeste 0 -- -- 100
2020-03-31 10:00:00 6.1 14 Nordeste 23 Nordeste 0 -- -- 100
2020-03-31 09:00:00 5.7 20 Nordeste 28 Nordeste 0 -- -- 100
2020-03-31 08:00:00 5.7 21 Nordeste 29 Nordeste 0.6 -- -- 100
2020-03-31 07:00:00 5.7 25 Nordeste 31 Nordeste 1.2 -- -- 100
2020-03-31 06:00:00 6.4 25 Nordeste 34 Nordeste 2.6 -- -- 100
2020-03-31 05:00:00 6.6 24 Nordeste 36 Nordeste 4 -- -- 100
2020-03-31 04:00:00 7.2 20 Nordeste 32 Nordeste 0.8 -- -- 99
2020-03-31 03:00:00 7.5 18 Nordeste 32 Nordeste 1.2 -- -- 99
2020-03-31 02:00:00 8.1 24 Nordeste 32 Nordeste 1.2 -- -- 99
2020-03-31 01:00:00 9.3 22 Nordeste 31 Nordeste 0 -- -- 99
2020-03-31 00:00:00 8.8 16 Nordeste 23 Norte 0 -- -- 99
2020-03-30 23:00:00 8.5 17 Nordeste 22 Nordeste 0 -- -- 98
2020-03-30 22:00:00 8.2 16 Nordeste 22 Nordeste 0 -- -- 97
2020-03-30 21:00:00 9.4 13 Nordeste 19 Norte 0.2 -- -- 94
2020-03-30 20:00:00 11.8 2 Oeste 14 Sur 0 -- -- 86
2020-03-30 19:00:00 11.5 7 Sudeste 17 Nordeste 0.4 -- -- 92
2020-03-30 18:00:00 11.4 15 Nordeste 26 Nordeste 0 -- -- 93
2020-03-30 17:00:00 11.8 19 Nordeste 26 Nordeste 0 -- -- 91
2020-03-30 16:00:00 12.5 16 Nordeste 20 Nordeste 0 -- -- 88
2020-03-30 15:00:00 13.3 10 Norte 13 Norte 0 -- -- 83
2020-03-30 14:00:00 13.4 8 Nordeste 12 Nordeste 0 -- -- 84
2020-03-30 13:00:00 12.8 7 Nordeste 10 Sudeste 0 -- -- 87
2020-03-30 12:00:00 11.4 8 Este 10 Este 0.2 -- -- 93
2020-03-30 11:00:00 11.2 3 Norte 9 Sudeste 0 -- -- 89
2020-03-30 10:00:00 9.7 3 Nordeste 8 Sur 0 -- -- 93
2020-03-30 09:00:00 9 2 Sudeste 14 Sudoeste 0 -- -- 91
2020-03-30 08:00:00 9.1 5 Sudoeste 13 Sudoeste 0 -- -- 91
2020-03-30 07:00:00 8.1 6 Sudoeste 11 Sudoeste 0 -- -- 90
2020-03-30 06:00:00 9 6 Sudoeste 8 Sudoeste 0 -- -- 84
2020-03-30 05:00:00 8.6 6 Sur 10 Sur 0 -- -- 87
2020-03-30 04:00:00 9.8 7 Sudeste 8 Sudeste 0 -- -- 83
2020-03-30 03:00:00 10.2 5 Oeste 9 Oeste 0 -- -- 83
2020-03-30 02:00:00 10.8 5 Oeste 12 Oeste 0 -- -- 83
2020-03-30 01:00:00 11.3 8 Oeste 12 Oeste 0 -- -- 82
2020-03-30 00:00:00 12.3 7 Sur 12 Sudeste 0 -- -- 76
2020-03-29 23:00:00 12.7 10 Sudeste 12 Sur 0 -- -- 75
2020-03-29 22:00:00 13.4 8 Sudeste 15 Sudeste 0 -- -- 73
2020-03-29 21:00:00 15 10 Sudeste 16 Sur 0 -- -- 68
2020-03-29 20:00:00 17.1 4 Sudoeste 14 Sudoeste 0 -- -- 58
2020-03-29 19:00:00 18 10 Oeste 18 Sudoeste 0 -- -- 51
2020-03-29 18:00:00 18.3 10 Sudoeste 18 Oeste 0 -- -- 50
2020-03-29 17:00:00 19.2 11 Oeste 20 Sudoeste 0 -- -- 51
2020-03-29 16:00:00 19.1 11 Sudoeste 24 Oeste 0 -- -- 53
2020-03-29 15:00:00 18.2 8 Oeste 20 Sudoeste 0 -- -- 57
2020-03-29 14:00:00 18.1 10 Sudoeste 19 Oeste 0 -- -- 59
2020-03-29 13:00:00 16.8 10 Sudoeste 19 Sudeste 0 -- -- 64
2020-03-29 12:00:00 15.4 12 Sudoeste 21 Sudoeste 0 -- -- 72
2020-03-29 11:00:00 13.8 8 Sudoeste 15 Sur 0 -- -- 77
2020-03-29 10:00:00 11.4 4 Este 7 Este 0 -- -- 87
2020-03-29 09:00:00 8.5 3 Oeste 6 Sudoeste 0 -- -- 93
2020-03-29 08:00:00 8.6 0 Calma 13 Sur 0 -- -- 91
2020-03-29 07:00:00 9.2 11 Sur 17 Sur 0 -- -- 90
2020-03-29 06:00:00 8.4 11 Sur 13 Sur 0 -- -- 89
2020-03-29 05:00:00 8.6 9 Sur 13 Sudeste 0 -- -- 89
2020-03-29 03:00:00 11.2 8 Sudoeste 15 Sur 0 -- -- 84
2020-03-29 01:00:00 11.7 5 Sudoeste 13 Sudoeste 0 -- -- 73
2020-03-29 00:00:00 12.2 10 Sudeste 13 Sudeste 0 -- -- 68
2020-03-28 23:00:00 11.2 9 Este 13 Nordeste 0 -- -- 74
2020-03-28 22:00:00 11.8 12 Nordeste 13 Nordeste 0 -- -- 74
2020-03-28 21:00:00 11.8 10 Nordeste 12 Nordeste 0 -- -- 73
2020-03-28 20:00:00 13.1 6 Norte 10 Nordeste 0 -- -- 67
2020-03-28 19:00:00 15.6 8 Nordeste 14 Nordeste 0 -- -- 60
2020-03-28 18:00:00 16.4 9 Este 19 Este 0 -- -- 57
2020-03-28 17:00:00 16.4 10 Nordeste 23 Nordeste 0 -- -- 57
2020-03-28 16:00:00 16.7 14 Nordeste 23 Nordeste 0 -- -- 57
2020-03-28 15:00:00 15.5 17 Nordeste 27 Nordeste 0 -- -- 62
2020-03-28 14:00:00 15 13 Nordeste 25 Este 0 -- -- 63
2020-03-28 13:00:00 14.1 16 Nordeste 30 Nordeste 0 -- -- 66
2020-03-28 12:00:00 12.7 19 Este 31 Este 0 -- -- 67
2020-03-28 11:00:00 10.7 23 Este 33 Este 0 -- -- 71
2020-03-28 10:00:00 8.8 25 Nordeste 34 Este 0 -- -- 78
2020-03-28 09:00:00 5.6 17 Este 26 Este 0 -- -- 92
2020-03-28 08:00:00 3.6 18 Este 26 Este 0 -- -- 95
2020-03-28 07:00:00 3.2 18 Este 23 Este 0 -- -- 95
2020-03-28 06:00:00 3.4 12 Este 23 Nordeste 0 -- -- 94
2020-03-28 05:00:00 3.5 15 Nordeste 18 Nordeste 0 -- -- 93
2020-03-28 04:00:00 4.3 10 Nordeste 19 Este 0 -- -- 90
2020-03-28 03:00:00 5.3 13 Nordeste 17 Nordeste 0 -- -- 86
2020-03-28 02:00:00 5.3 11 Nordeste 19 Este 0 -- -- 86
2020-03-28 01:00:00 6.3 12 Este 19 Este 0 -- -- 86
2020-03-28 00:00:00 8.4 15 Este 22 Este 0 -- -- 76
2020-03-27 23:00:00 10.2 17 Este 23 Este 0 -- -- 73
2020-03-27 22:00:00 10.8 12 Nordeste 17 Este 0 -- -- 74
2020-03-27 21:00:00 11.1 12 Este 17 Nordeste 0 -- -- 78
2020-03-27 20:00:00 10.8 10 Este 15 Este 0 -- -- 77
2020-03-27 19:00:00 13.2 13 Nordeste 24 Este 0 -- -- 65
2020-03-27 18:00:00 14.6 15 Este 24 Este 0 -- -- 60
2020-03-27 17:00:00 15 15 Este 28 Este 0 -- -- 62
2020-03-27 16:00:00 14.3 17 Nordeste 29 Nordeste 0 -- -- 68
2020-03-27 15:00:00 14 18 Nordeste 28 Nordeste 0 -- -- 71
2020-03-27 14:00:00 13.9 10 Nordeste 21 Nordeste 0 -- -- 67
2020-03-27 13:00:00 13.8 6 Nordeste 13 Nordeste 0 -- -- 69
2020-03-27 12:00:00 12.5 4 Nordeste 13 Noroeste 0 -- -- 72
2020-03-27 11:00:00 10.3 3 Noroeste 8 Sur 0 -- -- 76
2020-03-27 10:00:00 9.6 4 Noroeste 8 Sudoeste 0 -- -- 82
2020-03-27 09:00:00 8.6 3 Norte 12 Oeste 0 -- -- 90
2020-03-27 08:00:00 7.6 7 Oeste 18 Oeste 0 -- -- 92
2020-03-27 07:00:00 7.6 9 Oeste 22 Oeste 0 -- -- 93
2020-03-27 06:00:00 7.7 8 Oeste 27 Oeste 0 -- -- 93
2020-03-27 05:00:00 7.5 17 Oeste 26 Oeste 0 -- -- 94
2020-03-27 04:00:00 7.4 15 Oeste 25 Sudoeste 0 -- -- 94
2020-03-27 03:00:00 7 13 Oeste 21 Oeste 0 -- -- 93
2020-03-27 02:00:00 7.2 12 Oeste 21 Oeste 0 -- -- 91
2020-03-27 01:00:00 7.8 11 Oeste 23 Oeste 0 -- -- 89
2020-03-27 00:00:00 8.6 11 Oeste 28 Oeste 0 -- -- 86
2020-03-26 23:00:00 9.6 12 Oeste 32 Oeste 0 -- -- 86
2020-03-26 22:00:00 10.4 11 Oeste 22 Oeste 0 -- -- 84
2020-03-26 21:00:00 12.1 15 Oeste 22 Oeste 0 -- -- 77
2020-03-26 20:00:00 13.8 14 Oeste 29 Oeste 0 -- -- 71
2020-03-26 19:00:00 16.4 17 Oeste 34 Oeste 0 -- -- 61
2020-03-26 18:00:00 17.9 18 Oeste 37 Oeste 0 -- -- 56
2020-03-26 17:00:00 19.2 20 Noroeste 37 Oeste 0 -- -- 50
2020-03-26 16:00:00 19.7 21 Oeste 36 Oeste 0 -- -- 51
2020-03-26 15:00:00 19.7 19 Noroeste 33 Noroeste 0 -- -- 50
2020-03-26 14:00:00 19 16 Oeste 31 Oeste 0 -- -- 56
2020-03-26 13:00:00 17.8 13 Oeste 27 Sudoeste 0 -- -- 63
2020-03-26 12:00:00 15.8 16 Oeste 26 Oeste 0 -- -- 69
2020-03-26 11:00:00 13.8 17 Sudoeste 24 Sudoeste 0 -- -- 76
2020-03-26 10:00:00 11.7 15 Oeste 27 Oeste 0 -- -- 86
2020-03-26 09:00:00 9.8 14 Oeste 28 Sudoeste 0 -- -- 92
2020-03-26 08:00:00 8.3 17 Oeste 31 Oeste 0 -- -- 97
2020-03-26 07:00:00 8.1 17 Oeste 29 Oeste 0 -- -- 98
2020-03-26 06:00:00 8.3 16 Sudoeste 26 Oeste 0 -- -- 97
2020-03-26 05:00:00 8.8 11 Sudoeste 17 Sudoeste 0 -- -- 96
2020-03-26 04:00:00 9.6 10 Sudoeste 19 Oeste 0 -- -- 95
2020-03-26 03:00:00 10.8 11 Sudoeste 19 Sudoeste 0 -- -- 95
2020-03-26 02:00:00 11.4 8 Sudoeste 18 Sudoeste 0 -- -- 94
2020-03-26 01:00:00 12.3 12 Oeste 21 Sudoeste 0 -- -- 86
2020-03-26 00:00:00 13.3 13 Oeste 21 Oeste 0 -- -- 85
2020-03-25 23:00:00 14.5 11 Sudoeste 21 Sudoeste 0 -- -- 80
2020-03-25 22:00:00 14.5 13 Sudoeste 22 Sudoeste 0 -- -- 77
2020-03-25 21:00:00 14.9 6 Sudoeste 11 Sudoeste 0 -- -- 69
2020-03-25 20:00:00 16.2 7 Oeste 15 Oeste 0 -- -- 67
2020-03-25 19:00:00 18.9 7 Oeste 18 Sudoeste 0 -- -- 56
2020-03-25 18:00:00 20.5 6 Oeste 13 Oeste 0 -- -- 44
2020-03-25 17:00:00 20.4 4 Noroeste 13 Norte 0 -- -- 53
2020-03-25 16:00:00 20.2 4 Noroeste 12 Oeste 0 -- -- 52
2020-03-25 15:00:00 19.7 4 Sur 14 Este 0 -- -- 58
2020-03-25 14:00:00 18.4 5 Oeste 13 Noroeste 0 -- -- 64
2020-03-25 13:00:00 17 4 Noroeste 15 Norte 0 -- -- 67
2020-03-25 12:00:00 14.8 10 Nordeste 21 Norte 0 -- -- 74
2020-03-25 11:00:00 13.8 12 Nordeste 17 Nordeste 0 -- -- 77
2020-03-25 10:00:00 12.3 11 Nordeste 17 Nordeste 0 -- -- 81
2020-03-25 09:00:00 11.3 9 Este 14 Nordeste 0 -- -- 84
2020-03-25 08:00:00 8.9 10 Este 15 Este 0 -- -- 92
2020-03-25 07:00:00 8.8 11 Nordeste 21 Este 0 -- -- 92
2020-03-25 06:00:00 8.9 14 Este 24 Este 0 -- -- 90
2020-03-25 05:00:00 8.7 19 Este 24 Este 0 -- -- 90
2020-03-25 04:00:00 9.2 17 Nordeste 27 Nordeste 0 -- -- 88
2020-03-25 03:00:00 9.6 20 Nordeste 28 Nordeste 0 -- -- 88
2020-03-25 02:00:00 10.2 13 Este 24 Nordeste 0 -- -- 85
2020-03-25 01:00:00 10.7 18 Este 23 Nordeste 0 -- -- 83
2020-03-25 00:00:00 11.3 18 Este 32 Este 0 -- -- 80
2020-03-24 23:00:00 13.6 20 Este 35 Este 0 -- -- 69
2020-03-24 22:00:00 14.2 23 Nordeste 32 Nordeste 0 -- -- 70
2020-03-24 21:00:00 14.6 19 Nordeste 28 Nordeste 0 -- -- 69
2020-03-24 20:00:00 14.9 17 Nordeste 31 Nordeste 0 -- -- 68
2020-03-24 19:00:00 15.7 18 Nordeste 35 Nordeste 0 -- -- 67
2020-03-24 18:00:00 16.3 23 Nordeste 40 Nordeste 0 -- -- 66
2020-03-24 17:00:00 16.5 31 Nordeste 45 Nordeste 0 -- -- 61
2020-03-24 16:00:00 16.9 35 Nordeste 51 Nordeste 0 -- -- 62
2020-03-24 15:00:00 17.2 35 Nordeste 54 Nordeste 0 -- -- 61
2020-03-24 14:00:00 17.3 36 Nordeste 51 Este 0 -- -- 60
2020-03-24 13:00:00 17.9 39 Este 57 Nordeste 0 -- -- 58
2020-03-24 12:00:00 16.5 35 Nordeste 52 Nordeste 0 -- -- 64
2020-03-24 11:00:00 15.1 33 Este 45 Este 0 -- -- 71
2020-03-24 10:00:00 13.6 21 Nordeste 29 Nordeste 0 -- -- 85
2020-03-24 09:00:00 10 9 Nordeste 18 Nordeste 0 -- -- 99
2020-03-24 08:00:00 7.9 10 Nordeste 18 Nordeste 0 -- -- 99
2020-03-24 07:00:00 7.1 17 Nordeste 20 Nordeste 0 -- -- 99
2020-03-24 06:00:00 7.1 10 Nordeste 13 Nordeste 0 -- -- 99
2020-03-24 05:00:00 7.6 8 Nordeste 14 Nordeste 0 -- -- 98
2020-03-24 04:00:00 8.8 13 Nordeste 15 Nordeste 0 -- -- 98
2020-03-24 03:00:00 7.8 12 Nordeste 14 Nordeste 0 -- -- 97
2020-03-24 02:00:00 8.5 9 Este 15 Este 0 -- -- 97
2020-03-24 01:00:00 8.1 8 Nordeste 11 Nordeste 0 -- -- 94
2020-03-24 00:00:00 8.9 9 Nordeste 14 Nordeste 0 -- -- 93
2020-03-23 23:00:00 9.7 11 Norte 13 Norte 0 -- -- 89
2020-03-23 22:00:00 9.5 7 Norte 12 Norte 0 -- -- 85
2020-03-23 21:00:00 10.6 5 Nordeste 8 Nordeste 0 -- -- 83
2020-03-23 20:00:00 11 6 Nordeste 11 Nordeste 0 -- -- 82
2020-03-23 19:00:00 13.3 7 Este 28 Sudeste 0 -- -- 75
2020-03-23 18:00:00 15 21 Este 35 Este 0 -- -- 68
2020-03-23 17:00:00 15.9 20 Nordeste 28 Norte 0 -- -- 64
2020-03-23 16:00:00 13.5 25 Norte 41 Nordeste 0 -- -- 73
2020-03-23 15:00:00 16.2 20 Nordeste 30 Nordeste 0 -- -- 61
2020-03-23 14:00:00 16.7 20 Nordeste 33 Este 0 -- -- 61
2020-03-23 13:00:00 15.6 23 Nordeste 36 Este 0 -- -- 68
2020-03-23 12:00:00 14.2 22 Este 33 Este 0 -- -- 73
2020-03-23 11:00:00 14 18 Este 26 Este 0 -- -- 81
2020-03-23 10:00:00 12.3 13 Este 20 Este 0 -- -- 91
2020-03-23 09:00:00 10 13 Nordeste 16 Nordeste 0 -- -- 99
2020-03-23 08:00:00 8.1 11 Nordeste 13 Nordeste 0 -- -- 99
2020-03-23 07:00:00 7.8 13 Nordeste 15 Nordeste 0 -- -- 99
2020-03-23 06:00:00 8 9 Este 12 Este 0 -- -- 99
2020-03-23 05:00:00 7.8 8 Nordeste 11 Nordeste 0 -- -- 98
2020-03-23 04:00:00 8.8 6 Nordeste 11 Nordeste 0 -- -- 97
2020-03-23 03:00:00 9.3 3 Nordeste 7 Nordeste 0 -- -- 94
2020-03-23 02:00:00 9.4 4 Nordeste 10 Sudeste 0 -- -- 88
2020-03-23 01:00:00 11 7 Sudeste 8 Este 0 -- -- 82
2020-03-23 00:00:00 10.4 8 Este 17 Nordeste 0 -- -- 86
2020-03-22 23:00:00 11.6 2 Sudoeste -- -- 0 -- -- 78
2020-03-22 22:00:00 11.5 3 Oeste 4 Oeste 0 -- -- 77
2020-03-22 21:00:00 11.6 2 Sudoeste 8 Norte 0 -- -- 80
2020-03-22 20:00:00 11.9 6 Norte 11 Norte 0 -- -- 81
2020-03-22 19:00:00 13.4 8 Norte 21 Norte 0 -- -- 73
2020-03-22 18:00:00 15.8 10 Norte 19 Norte 0 -- -- 61
2020-03-22 17:00:00 15.8 11 Nordeste 18 Nordeste 0 -- -- 55
2020-03-22 16:00:00 15.6 10 Este 17 Este 0 -- -- 55
2020-03-22 15:00:00 15.4 10 Nordeste 19 Nordeste 0 -- -- 58
2020-03-22 14:00:00 15.3 12 Este 32 Nordeste 0 -- -- 61
2020-03-22 13:00:00 13.9 15 Nordeste 24 Nordeste 0 -- -- 70
2020-03-22 12:00:00 12.8 15 Nordeste 24 Este 0 -- -- 77
2020-03-22 11:00:00 11.9 18 Este 27 Este 0 -- -- 83
2020-03-22 10:00:00 9.6 13 Nordeste 21 Nordeste 0 -- -- 99
2020-03-22 09:00:00 8.2 11 Nordeste 15 Nordeste 0 -- -- 100
2020-03-22 08:00:00 7 9 Nordeste 13 Nordeste 0 -- -- 100
2020-03-22 07:00:00 7.9 10 Nordeste 13 Nordeste 0 -- -- 100
2020-03-22 06:00:00 8.1 6 Nordeste 11 Nordeste 0 -- -- 100
2020-03-22 05:00:00 8 6 Nordeste 11 Nordeste 0 -- -- 100
2020-03-22 04:00:00 7.5 9 Este 14 Nordeste 0 -- -- 99
2020-03-22 03:00:00 8.6 8 Nordeste 10 Norte 0 -- -- 99
2020-03-22 02:00:00 8.5 8 Nordeste 9 Nordeste 0 -- -- 99
2020-03-22 01:00:00 7.7 8 Nordeste 10 Nordeste 0 -- -- 98
2020-03-22 00:00:00 8.2 10 Nordeste 13 Nordeste 0.2 -- -- 97
2020-03-21 23:00:00 9.1 12 Nordeste 17 Nordeste 0 -- -- 97
2020-03-21 22:00:00 9.5 13 Nordeste 19 Este 0.2 -- -- 97
2020-03-21 21:00:00 9.2 11 Norte 15 Norte 0 -- -- 96
2020-03-21 20:00:00 9.2 7 Norte 11 Norte 0 -- -- 93
2020-03-21 19:00:00 9.8 0 Calma 4 Sudoeste 0 -- -- 93
2020-03-21 18:00:00 9.8 2 Nordeste 27 Nordeste 0.6 -- -- 90
2020-03-21 17:00:00 11.4 20 Nordeste 26 Nordeste 0.4 -- -- 88
2020-03-21 16:00:00 9.5 17 Este 33 Este 4 -- -- 85
2020-03-21 15:00:00 12.8 13 Nordeste 24 Nordeste 0 -- -- 77
2020-03-21 14:00:00 12.5 5 Nordeste 15 Este 0 -- -- 80
2020-03-21 13:00:00 11.4 10 Sudeste 19 Sudeste 0.4 -- -- 82
2020-03-21 12:00:00 11.9 6 Nordeste 13 Sudeste 0 -- -- 79
2020-03-21 11:00:00 11.3 4 Sudoeste 14 Sur 0 -- -- 81
2020-03-21 10:00:00 9.7 5 Sur 13 Sudoeste 0 -- -- 93
2020-03-21 09:00:00 9 9 Sudoeste 19 Sur 0 -- -- 97
2020-03-21 08:00:00 7.9 10 Sur 19 Sur 0 -- -- 99
2020-03-21 07:00:00 8 12 Sudoeste 19 Sudoeste 0.2 -- -- 99
2020-03-21 06:00:00 8.2 11 Sudoeste 26 Sudoeste 0 -- -- 98
2020-03-21 05:00:00 8.7 17 Sudoeste 27 Sudoeste 0.2 -- -- 99
2020-03-21 04:00:00 9.1 17 Sudoeste 25 Sudoeste 0.2 -- -- 99
2020-03-21 03:00:00 9.1 12 Sudoeste 19 Sudoeste 0.2 -- -- 100
2020-03-21 02:00:00 9.3 12 Sudoeste 18 Sudoeste 1.8 -- -- 99
2020-03-21 01:00:00 9.6 9 Sudoeste 15 Oeste 2 -- -- 99
2020-03-21 00:00:00 10.2 12 Sudoeste 18 Sudoeste 3.6 -- -- 99
2020-03-20 23:00:00 10.4 0 Calma 8 Norte 1.8 -- -- 99
2020-03-20 22:00:00 10.6 10 Norte 18 Norte 4.2 -- -- 99
2020-03-20 21:00:00 10.6 5 Oeste 10 Oeste 5.4 -- -- 98
2020-03-20 20:00:00 10.8 4 Oeste 14 Sur 4.8 -- -- 98
2020-03-20 19:00:00 11 4 Sudoeste 13 Sudoeste 0.8 -- -- 97
2020-03-20 18:00:00 11.1 6 Sudoeste 26 Sudoeste 2.4 -- -- 95
2020-03-20 17:00:00 13 6 Sur 14 Sur 2.2 -- -- 96
2020-03-20 16:00:00 13.1 8 Sudeste 15 Sur 4 -- -- 95
2020-03-20 15:00:00 14.8 4 Sur 11 Sudoeste 0 -- -- 80
2020-03-20 14:00:00 14.4 8 Sur 19 Sudoeste 0 -- -- 82
2020-03-20 13:00:00 14.1 14 Sudoeste 27 Sudoeste 0 -- -- 83
2020-03-20 12:00:00 14 18 Sudoeste 31 Sudoeste 0 -- -- 84
2020-03-20 11:00:00 14 18 Sudoeste 27 Sudoeste 0 -- -- 85
2020-03-20 10:00:00 13.6 13 Sudoeste 23 Sur 0 -- -- 88
2020-03-20 09:00:00 12.9 15 Sudoeste 23 Sur 0 -- -- 92
2020-03-20 08:00:00 12.8 11 Sudoeste 23 Sudoeste 0 -- -- 90
2020-03-20 07:00:00 13 18 Sudoeste 36 Sudoeste 0 -- -- 88
2020-03-20 06:00:00 13.3 25 Sudoeste 36 Sudoeste 0 -- -- 86
2020-03-20 05:00:00 14.2 11 Sudoeste 17 Sudoeste 0 -- -- 79
2020-03-20 04:00:00 14 6 Sudoeste 14 Sudoeste 0 -- -- 80
2020-03-20 03:00:00 14.3 6 Oeste 18 Sur 0 -- -- 78
2020-03-20 02:00:00 13.3 4 Sudoeste 11 Este 0 -- -- 78
2020-03-20 01:00:00 13.1 4 Nordeste 8 Nordeste 0 -- -- 77
2020-03-20 00:00:00 13.2 5 Este 9 Norte 0 -- -- 78
2020-03-19 23:00:00 14 11 Norte 19 Norte 0 -- -- 73
2020-03-19 22:00:00 14.6 15 Norte -- -- 0 -- -- 70
2020-03-19 21:00:00 15.5 8 Nordeste 10 Nordeste 0 -- -- 63
2020-03-19 20:00:00 16.2 9 Nordeste 11 Nordeste 0 -- -- 61
2020-03-19 19:00:00 18.8 7 Nordeste 13 Nordeste 0 -- -- 59
2020-03-19 18:00:00 20.6 10 Nordeste 16 Este 0 -- -- 47
2020-03-19 17:00:00 20.4 10 Nordeste 21 Nordeste 0 -- -- 48
2020-03-19 16:00:00 21.3 12 Nordeste 23 Nordeste 0 -- -- 47
2020-03-19 15:00:00 20.3 11 Este 29 Nordeste 0 -- -- 48
2020-03-19 14:00:00 20.2 16 Este 27 Nordeste 0 -- -- 48
2020-03-19 13:00:00 19.3 16 Nordeste 27 Nordeste 0 -- -- 55
2020-03-19 12:00:00 18 18 Nordeste 27 Este 0 -- -- 61
2020-03-19 11:00:00 15.7 18 Nordeste 26 Nordeste 0 -- -- 67
2020-03-19 10:00:00 12 10 Nordeste 17 Este 0 -- -- 81
2020-03-19 09:00:00 9.6 16 Nordeste 22 Nordeste 0 -- -- 91
2020-03-19 08:00:00 8.5 9 Nordeste 15 Sudeste 0 -- -- 89
2020-03-19 07:00:00 8.9 10 Este 12 Este 0 -- -- 89
2020-03-19 06:00:00 9.1 9 Nordeste 10 Nordeste 0 -- -- 86
2020-03-19 05:00:00 10.3 5 Este 10 Sudeste 0 -- -- 82
2020-03-19 04:00:00 9.6 8 Nordeste 14 Este 0 -- -- 86
2020-03-19 03:00:00 10.6 13 Nordeste 17 Nordeste 0 -- -- 84
2020-03-19 02:00:00 11.8 3 Nordeste 21 Este 0 -- -- 76
2020-03-19 01:00:00 13.3 17 Nordeste 26 Nordeste 0 -- -- 71
2020-03-19 00:00:00 12.2 11 Nordeste 19 Nordeste 0 -- -- 81
2020-03-18 23:00:00 12.7 16 Nordeste 20 Nordeste 0 -- -- 81
2020-03-18 22:00:00 13.9 17 Nordeste 21 Nordeste 0 -- -- 76
2020-03-18 21:00:00 15.1 15 Nordeste 29 Nordeste 0 -- -- 71
2020-03-18 20:00:00 17.5 18 Nordeste 24 Nordeste 0 -- -- 58
2020-03-18 19:00:00 19.6 18 Nordeste 30 Nordeste 0 -- -- 52
2020-03-18 18:00:00 21.3 23 Nordeste 36 Nordeste 0 -- -- 46
2020-03-18 17:00:00 21.7 23 Nordeste 34 Nordeste 0 -- -- 46
2020-03-18 16:00:00 21.4 24 Nordeste 37 Nordeste 0 -- -- 48
2020-03-18 15:00:00 21.1 29 Nordeste 41 Nordeste 0 -- -- 50
2020-03-18 14:00:00 20.5 26 Nordeste 40 Este 0 -- -- 52
2020-03-18 13:00:00 19.2 29 Nordeste 42 Nordeste 0 -- -- 56
2020-03-18 12:00:00 18 28 Nordeste 38 Nordeste 0 -- -- 59
2020-03-18 11:00:00 16.2 27 Nordeste 43 Nordeste 0 -- -- 63
2020-03-18 10:00:00 14.2 30 Nordeste 41 Nordeste 0 -- -- 69
2020-03-18 09:00:00 11.9 22 Nordeste 30 Nordeste 0 -- -- 79
2020-03-18 08:00:00 10.6 19 Nordeste 34 Nordeste 0 -- -- 83
2020-03-18 07:00:00 11.1 27 Nordeste 36 Nordeste 0 -- -- 83
2020-03-18 06:00:00 10.7 21 Este 31 Nordeste 0 -- -- 89
2020-03-18 05:00:00 11.8 24 Nordeste 36 Nordeste 0 -- -- 85
2020-03-18 04:00:00 9.9 17 Nordeste 30 Este 0 -- -- 91
2020-03-18 03:00:00 9.6 14 Nordeste 38 Nordeste 0 -- -- 82
2020-03-18 02:00:00 8.4 15 Nordeste 19 Nordeste 0 -- -- 81
2020-03-18 01:00:00 10.9 19 Nordeste 30 Nordeste 0 -- -- 72
2020-03-18 00:00:00 9.3 16 Nordeste 26 Nordeste 0 -- -- 73
2020-03-17 23:00:00 10.3 19 Nordeste 24 Nordeste 0 -- -- 67
2020-03-17 22:00:00 11.7 19 Nordeste 25 Nordeste 0 -- -- 61
2020-03-17 21:00:00 11.4 15 Nordeste 22 Nordeste 0 -- -- 57
2020-03-17 20:00:00 12.6 11 Nordeste 24 Este 0 -- -- 54
2020-03-17 19:00:00 15.6 19 Nordeste 43 Nordeste 0 -- -- 44
2020-03-17 18:00:00 16.7 26 Este 40 Este 0 -- -- 39
2020-03-17 17:00:00 17.7 23 Este 37 Este 0 -- -- 42
2020-03-17 16:00:00 16.6 23 Este 37 Este 0 -- -- 44
2020-03-17 15:00:00 15.5 19 Este 41 Este 0 -- -- 50
2020-03-17 14:00:00 15.6 24 Este 48 Este 0 -- -- 50
2020-03-17 13:00:00 14.4 27 Este 45 Este 0 -- -- 59
2020-03-17 12:00:00 12.9 26 Este 44 Este 0 -- -- 66
2020-03-17 11:00:00 11 32 Este 45 Este 0 -- -- 70
2020-03-17 10:00:00 8.5 23 Nordeste 35 Nordeste 0 -- -- 85
2020-03-17 09:00:00 6.9 21 Nordeste 28 Nordeste 0 -- -- 92
2020-03-17 08:00:00 5.6 18 Nordeste 25 Nordeste 0 -- -- 95
2020-03-17 07:00:00 4.9 16 Nordeste 25 Nordeste 0 -- -- 96
2020-03-17 06:00:00 4.7 16 Nordeste 21 Nordeste 0 -- -- 95
2020-03-17 05:00:00 4.6 15 Norte 22 Norte 0 -- -- 96
2020-03-17 04:00:00 4.6 18 Norte 24 Norte 0 -- -- 94
2020-03-17 03:00:00 4.8 15 Nordeste 21 Norte 0 -- -- 94
2020-03-17 02:00:00 5.5 15 Nordeste 20 Nordeste 0 -- -- 94
2020-03-17 01:00:00 6.5 14 Norte 21 Norte 0 -- -- 93
2020-03-17 00:00:00 7.3 14 Norte 23 Nordeste 0 -- -- 91
2020-03-16 23:00:00 7.7 14 Norte 25 Norte 0 -- -- 91
2020-03-16 22:00:00 7.6 13 Noroeste 28 Norte 0.6 -- -- 93
2020-03-16 21:00:00 7.9 15 Norte 33 Norte 1 -- -- 91
2020-03-16 20:00:00 9.5 12 Norte 17 Norte 0 -- -- 73
2020-03-16 19:00:00 9.9 18 Norte 36 Norte 0 -- -- 71
2020-03-16 18:00:00 10.9 18 Norte 28 Norte 0 -- -- 66
2020-03-16 17:00:00 12.1 15 Norte 27 Norte 0 -- -- 63
2020-03-16 16:00:00 10.7 20 Norte 64 Nordeste 0.2 -- -- 72
2020-03-16 15:00:00 12.1 26 Norte 46 Norte 0 -- -- 54
2020-03-16 14:00:00 13.5 24 Norte 39 Norte 0 -- -- 47
2020-03-16 13:00:00 13.7 23 Norte 45 Noroeste 0 -- -- 50
2020-03-16 12:00:00 12.6 19 Noroeste 39 Noroeste 0 -- -- 55
2020-03-16 11:00:00 10.8 17 Noroeste 40 Noroeste 0 -- -- 57
2020-03-16 10:00:00 8.5 18 Noroeste 35 Noroeste 0 -- -- 67
2020-03-16 09:00:00 5.9 12 Noroeste 31 Noroeste 0 -- -- 83
2020-03-16 08:00:00 4.2 18 Noroeste 28 Noroeste 0 -- -- 89
2020-03-16 07:00:00 4.2 18 Noroeste 32 Noroeste 0 -- -- 90
2020-03-16 06:00:00 4.6 17 Noroeste 28 Noroeste 0 -- -- 89
2020-03-16 05:00:00 4.6 15 Noroeste 28 Oeste 0 -- -- 89
2020-03-16 04:00:00 4.4 6 Oeste 15 Oeste 0 -- -- 88
2020-03-16 03:00:00 4.9 8 Oeste 15 Noroeste 0 -- -- 87
2020-03-16 02:00:00 5.6 8 Noroeste 19 Oeste 0 -- -- 83
2020-03-16 01:00:00 5.7 10 Noroeste 22 Oeste 0 -- -- 84
2020-03-16 00:00:00 7 14 Noroeste 30 Noroeste 0 -- -- 81
2020-03-15 23:00:00 8.2 15 Noroeste 34 Oeste 0 -- -- 76
2020-03-15 22:00:00 9.4 18 Noroeste 39 Noroeste 0 -- -- 81
2020-03-15 21:00:00 10.8 24 Noroeste 46 Noroeste 0 -- -- 80
2020-03-15 20:00:00 14.6 22 Noroeste 36 Oeste 0 -- -- 58
2020-03-15 19:00:00 16.1 18 Oeste 33 Oeste 0 -- -- 57
2020-03-15 18:00:00 18.1 19 Oeste 35 Oeste 0 -- -- 62
2020-03-15 17:00:00 18.7 17 Noroeste 35 Noroeste 0 -- -- 63
2020-03-15 16:00:00 18.8 21 Noroeste 39 Noroeste 0 -- -- 63
2020-03-15 15:00:00 20.9 21 Sudoeste 31 Oeste 0 -- -- 55
2020-03-15 14:00:00 20 20 Sudoeste 30 Oeste 0 -- -- 59
2020-03-15 13:00:00 19 17 Sudoeste 28 Oeste 0 -- -- 69
2020-03-15 12:00:00 17.5 18 Sudoeste 28 Sudoeste 0 -- -- 75
2020-03-15 11:00:00 17.1 12 Sudoeste 22 Oeste 0 -- -- 77
2020-03-15 10:00:00 14.7 9 Sudoeste 19 Sudoeste 0 -- -- 85
2020-03-15 09:00:00 12.2 13 Sudoeste 22 Sudoeste 0 -- -- 92
2020-03-15 08:00:00 12.1 17 Sudoeste 25 Sudoeste 0 -- -- 91
2020-03-15 07:00:00 12.1 12 Sudoeste 18 Sudoeste 0 -- -- 92
2020-03-15 06:00:00 11.2 9 Sudoeste 12 Sudoeste 0 -- -- 93
2020-03-15 05:00:00 11.6 4 Sudoeste 7 Sudoeste 0 -- -- 91
2020-03-15 04:00:00 12.4 3 Sur 12 Sudoeste 0 -- -- 86
2020-03-15 03:00:00 12.8 5 Sudoeste 11 Sudoeste 0 -- -- 84
2020-03-15 02:00:00 13.5 5 Sudoeste 9 Sudoeste 0 -- -- 80
2020-03-15 01:00:00 15.4 3 Sur 8 Sudoeste 0 -- -- 73
2020-03-15 00:00:00 15.9 5 Sur 9 Sur 0 -- -- 74
2020-03-14 23:00:00 15.9 7 Sur 10 Sur 0 -- -- 73
2020-03-14 22:00:00 16.4 6 Sudoeste 8 Sudoeste 0 -- -- 69
2020-03-14 21:00:00 17.7 3 Sur 6 Norte 0 -- -- 64
2020-03-14 20:00:00 19.7 3 Norte 5 Norte 0 -- -- 58
2020-03-14 19:00:00 21.6 3 Noroeste 10 Sudoeste 0 -- -- 54
2020-03-14 18:00:00 23.1 3 Noroeste 12 Noroeste 0 -- -- 46
2020-03-14 17:00:00 23.5 3 Noroeste 14 Norte 0 -- -- 47
2020-03-14 16:00:00 22.5 7 Norte 14 Noroeste 0 -- -- 50
2020-03-14 15:00:00 22.1 5 Noroeste 15 Norte 0 -- -- 54
2020-03-14 14:00:00 21 7 Norte 12 Nordeste 0 -- -- 57
2020-03-14 13:00:00 19 5 Norte 12 Norte 0 -- -- 63
2020-03-14 12:00:00 17.2 6 Nordeste 11 Nordeste 0 -- -- 69
2020-03-14 11:00:00 13.9 3 Oeste 6 Oeste 0 -- -- 92
2020-03-14 10:00:00 11.5 2 Oeste 6 Oeste 0 -- -- 96
2020-03-14 09:00:00 10.7 4 Sudoeste 7 Sur 0 -- -- 100
2020-03-14 08:00:00 9.1 5 Sudoeste 7 Sudoeste 0 -- -- 99
2020-03-14 07:00:00 9 6 Sudoeste 8 Oeste 0 -- -- 98
2020-03-14 06:00:00 9.7 3 Oeste 4 Sudoeste 0 -- -- 99
2020-03-14 05:00:00 9.8 3 Oeste 9 Sudoeste 0 -- -- 98
2020-03-14 04:00:00 10.2 6 Sudoeste 9 Oeste 0 -- -- 96
2020-03-14 03:00:00 10.8 6 Oeste 11 Sudoeste 0 -- -- 95
2020-03-14 02:00:00 11.2 8 Sudoeste 12 Sudoeste 0 -- -- 96
2020-03-14 01:00:00 11.6 8 Oeste 12 Oeste 0 -- -- 94
2020-03-14 00:00:00 11.9 8 Oeste 11 Oeste 0 -- -- 94
2020-03-13 23:00:00 12.7 7 Oeste 11 Oeste 0 -- -- 92
2020-03-13 22:00:00 13.2 4 Sudoeste 8 Sur 0 -- -- 90
2020-03-13 21:00:00 13.5 5 Sur 7 Sudoeste 0 -- -- 89
2020-03-13 20:00:00 14.6 5 Sur 8 Sudoeste 0 -- -- 84
2020-03-13 19:00:00 16.1 5 Oeste 12 Oeste 0 -- -- 79
2020-03-13 18:00:00 17.1 6 Oeste 15 Oeste 0 -- -- 75
2020-03-13 17:00:00 16.3 8 Noroeste 15 Oeste 0 -- -- 76
2020-03-13 16:00:00 15.5 6 Oeste 14 Oeste 0 -- -- 78
2020-03-13 15:00:00 13.8 8 Sudoeste 16 Sudoeste 0 -- -- 83
2020-03-13 14:00:00 13 10 Sudoeste 17 Oeste 0 -- -- 86
2020-03-13 13:00:00 12.1 7 Sudoeste 15 Oeste 0 -- -- 90
2020-03-13 12:00:00 11.2 8 Sudoeste 16 Oeste 0 -- -- 92
2020-03-13 11:00:00 10.8 9 Sudoeste 17 Sudoeste 0 -- -- 94
2020-03-13 10:00:00 10.4 7 Sudoeste 12 Oeste 0 -- -- 96
2020-03-13 09:00:00 9.9 6 Oeste 12 Oeste 0 -- -- 97
2020-03-13 08:00:00 9.8 7 Oeste 15 Oeste 0 -- -- 98
2020-03-13 07:00:00 9.9 8 Oeste 16 Oeste 0 -- -- 98
2020-03-13 06:00:00 9.9 12 Oeste 19 Oeste 0 -- -- 98
2020-03-13 05:00:00 10 10 Oeste 21 Oeste 0 -- -- 98
2020-03-13 04:00:00 10 11 Oeste 18 Oeste 0 -- -- 98
2020-03-13 03:00:00 10.1 13 Oeste 21 Oeste 0 -- -- 95
2020-03-13 02:00:00 11.5 15 Oeste 22 Oeste 0 -- -- 93
2020-03-13 01:00:00 12.8 12 Oeste 19 Oeste 0 -- -- 91
2020-03-13 00:00:00 13.8 8 Sudoeste 12 Sudoeste 0 -- -- 89
2020-03-12 23:00:00 15.4 8 Oeste 15 Oeste 0 -- -- 81
2020-03-12 22:00:00 16.8 5 Sudoeste 12 Sudoeste 0 -- -- 74
2020-03-12 21:00:00 17.3 5 Sudoeste 10 Oeste 0 -- -- 71
2020-03-12 20:00:00 18.5 9 Sudoeste 18 Sudoeste 0 -- -- 68
2020-03-12 19:00:00 20.4 10 Oeste 20 Sudoeste 0 -- -- 63
2020-03-12 18:00:00 21.9 12 Sudoeste 22 Sudoeste 0 -- -- 56
2020-03-12 17:00:00 22.2 14 Sudoeste 26 Oeste 0 -- -- 57
2020-03-12 16:00:00 22.3 19 Sudoeste 33 Sudoeste 0 -- -- 54
2020-03-12 15:00:00 21.8 17 Sudoeste 31 Sudoeste 0 -- -- 57
2020-03-12 14:00:00 21.9 17 Sudoeste 24 Sudoeste 0 -- -- 50
2020-03-12 13:00:00 20.7 12 Sudoeste 18 Oeste 0 -- -- 61
2020-03-12 12:00:00 19.7 4 Nordeste 8 Este 0 -- -- 63
2020-03-12 11:00:00 17.7 7 Nordeste 9 Nordeste 0 -- -- 73
2020-03-12 10:00:00 15.3 5 Nordeste 11 Este 0 -- -- 84
2020-03-12 09:00:00 14.6 8 Este 12 Este 0 -- -- 79
2020-03-12 08:00:00 11.3 10 Este 12 Este 0 -- -- 88
2020-03-12 07:00:00 12.5 7 Nordeste 11 Este 0 -- -- 80
2020-03-12 06:00:00 15.6 6 Sudoeste 11 Sudeste 0 -- -- 75
2020-03-12 05:00:00 15.5 3 Sudeste 8 Sudoeste 0 -- -- 74
2020-03-12 04:00:00 15.6 8 Sudoeste 11 Sudoeste 0 -- -- 74
2020-03-12 03:00:00 17.5 7 Sur 21 Sudoeste 0 -- -- 68
2020-03-12 02:00:00 16.1 10 Sur 15 Sur 0 -- -- 72
2020-03-12 01:00:00 17.4 7 Oeste 8 Oeste 0 -- -- 72
2020-03-12 00:00:00 16.9 2 Sudeste 13 Este 0 -- -- 75
2020-03-11 23:00:00 17.9 13 Este 15 Sudeste 0 -- -- 74
2020-03-11 22:00:00 17.8 13 Este 14 Este 0 -- -- 77
2020-03-11 21:00:00 17.4 12 Nordeste 15 Nordeste 0 -- -- 78
2020-03-11 20:00:00 18.7 14 Nordeste 16 Nordeste 0 -- -- 73
2020-03-11 19:00:00 19.9 13 Nordeste 21 Nordeste 0 -- -- 70
2020-03-11 18:00:00 21.9 12 Norte 19 Norte 0 -- -- 62
2020-03-11 17:00:00 22.9 13 Norte 17 Norte 0 -- -- 60
2020-03-11 16:00:00 24.3 13 Nordeste 17 Nordeste 0 -- -- 48
2020-03-11 15:00:00 25.2 12 Nordeste 19 Norte 0 -- -- 47
2020-03-11 14:00:00 24.8 14 Nordeste 22 Norte 0 -- -- 50
2020-03-11 13:00:00 22.6 17 Nordeste 20 Nordeste 0 -- -- 55
2020-03-11 12:00:00 18.5 12 Nordeste 16 Nordeste 0 -- -- 66
2020-03-11 11:00:00 15.4 12 Nordeste 15 Nordeste 0 -- -- 74
2020-03-11 10:00:00 13 11 Nordeste 13 Nordeste 0 -- -- 76
2020-03-11 09:00:00 11.5 8 Nordeste 15 Este 0 -- -- 79
2020-03-11 08:00:00 8.9 13 Nordeste 15 Nordeste 0 -- -- 88
2020-03-11 07:00:00 9.5 12 Nordeste 13 Nordeste 0 -- -- 82
2020-03-11 06:00:00 10.7 11 Nordeste 15 Este 0 -- -- 75
2020-03-11 05:00:00 11.6 11 Este 13 Nordeste 0 -- -- 73
2020-03-11 04:00:00 12.3 10 Este 13 Este 0 -- -- 71
2020-03-11 03:00:00 15 11 Este 12 Este 0 -- -- 61
2020-03-11 02:00:00 15.3 10 Este 11 Este 0 -- -- 61
2020-03-11 01:00:00 16.8 7 Este 14 Este 0 -- -- 56
2020-03-11 00:00:00 16.1 14 Este 16 Este 0 -- -- 60
2020-03-10 23:00:00 16.1 14 Este 17 Este 0 -- -- 61
2020-03-10 22:00:00 16.3 10 Este 12 Nordeste 0 -- -- 59
2020-03-10 21:00:00 18.4 9 Nordeste 10 Nordeste 0 -- -- 52
2020-03-10 20:00:00 19.5 6 Nordeste 9 Nordeste 0 -- -- 48
2020-03-10 19:00:00 21.7 7 Norte 12 Norte 0 -- -- 44
2020-03-10 18:00:00 24 8 Norte 12 Norte 0 -- -- 41
2020-03-10 17:00:00 24.7 8 Norte 13 Norte 0 -- -- 40
2020-03-10 16:00:00 24.6 6 Nordeste 12 Norte 0 -- -- 38
2020-03-10 15:00:00 23.7 6 Nordeste 17 Norte 0 -- -- 46
2020-03-10 14:00:00 21.8 10 Norte 15 Nordeste 0 -- -- 52
2020-03-10 13:00:00 20.2 9 Nordeste 18 Nordeste 0 -- -- 56
2020-03-10 12:00:00 18 5 Nordeste 19 Nordeste 0 -- -- 60
2020-03-10 11:00:00 15.3 12 Nordeste 15 Nordeste 0 -- -- 66
2020-03-10 10:00:00 12.5 8 Nordeste 20 Nordeste 0 -- -- 79
2020-03-10 09:00:00 10 16 Este 19 Este 0 -- -- 88
2020-03-10 08:00:00 7.7 17 Este 21 Este 0 -- -- 92
2020-03-10 07:00:00 8.1 14 Este 17 Este 0 -- -- 89
2020-03-10 06:00:00 8.7 9 Este 11 Este 0 -- -- 87
2020-03-10 05:00:00 8.8 0 Calma 8 Sur 0 -- -- 87
2020-03-10 04:00:00 8.9 4 Sur 8 Noroeste 0 -- -- 91
2020-03-10 03:00:00 9.1 6 Noroeste 8 Sudoeste 0 -- -- 92
2020-03-10 02:00:00 9 6 Sudoeste 10 Sudoeste 0 -- -- 91
2020-03-10 01:00:00 9.8 6 Sudoeste 9 Sur 0 -- -- 88
2020-03-10 00:00:00 10.4 6 Sudoeste 11 Sur 0 -- -- 84
2020-03-09 23:00:00 11.7 3 Sudoeste 10 Oeste 0 -- -- 76
2020-03-09 22:00:00 12.7 6 Oeste 17 Oeste 0 -- -- 70
2020-03-09 21:00:00 14.3 8 Oeste 21 Noroeste 0 -- -- 64
2020-03-09 20:00:00 15.9 10 Noroeste 15 Noroeste 0 -- -- 57
2020-03-09 19:00:00 18.1 9 Noroeste 19 Noroeste 0 -- -- 50
2020-03-09 18:00:00 19.7 14 Noroeste 27 Norte 0 -- -- 41
2020-03-09 17:00:00 20.7 15 Norte 28 Norte 0 -- -- 41
2020-03-09 16:00:00 20.8 18 Norte 29 Noroeste 0 -- -- 40
2020-03-09 15:00:00 20.5 21 Norte 31 Norte 0 -- -- 35
2020-03-09 14:00:00 19.6 8 Noroeste 24 Noroeste 0 -- -- 48
2020-03-09 13:00:00 17.7 10 Norte 19 Norte 0 -- -- 53
2020-03-09 12:00:00 15.9 11 Norte 19 Noroeste 0 -- -- 61
2020-03-09 11:00:00 13.2 6 Oeste 12 Oeste 0 -- -- 76
2020-03-09 10:00:00 10.9 8 Oeste 10 Oeste 0 -- -- 93
2020-03-09 09:00:00 9.3 5 Oeste 10 Oeste 0 -- -- 99
2020-03-09 08:00:00 8.2 8 Oeste 12 Oeste 0 -- -- 99
2020-03-09 07:00:00 8.7 4 Noroeste 11 Oeste 0 -- -- 99
2020-03-09 06:00:00 9 5 Oeste 9 Sudoeste 0 -- -- 99
2020-03-09 05:00:00 8.4 5 Sudoeste 11 Oeste 0 -- -- 98
2020-03-09 04:00:00 9.5 7 Oeste 13 Oeste 0 -- -- 98
2020-03-09 03:00:00 9.9 5 Noroeste 14 Oeste 0 -- -- 98
2020-03-09 02:00:00 9.7 9 Noroeste 22 Noroeste 0 -- -- 98
2020-03-09 01:00:00 8.8 6 Oeste 12 Noroeste 0 -- -- 96
2020-03-09 00:00:00 9.5 6 Sudoeste 15 Oeste 0 -- -- 94